createdAt,value
2022-11-20T00:01:12.364Z,-2.45
2022-11-20T00:03:42.156Z,-2.25
2022-11-20T00:06:13.973Z,-2.20
2022-11-20T00:08:43.104Z,-2.22
2022-11-20T00:11:16.586Z,-2.32
2022-11-20T00:13:46.476Z,-2.24
2022-11-20T00:16:17.613Z,-2.28
2022-11-20T00:18:46.724Z,-2.31
2022-11-20T00:21:18.479Z,-2.48
2022-11-20T00:23:47.510Z,-2.33
2022-11-20T00:26:22.363Z,-2.45
2022-11-20T00:28:53.591Z,-2.34
2022-11-20T00:31:22.633Z,-2.39
2022-11-20T00:33:51.494Z,-2.41
2022-11-20T00:36:21.997Z,-2.72
2022-11-20T00:38:54.625Z,-2.40
2022-11-20T00:41:25.912Z,-2.57
2022-11-20T00:43:55.755Z,-2.58
2022-11-20T00:46:26.294Z,-2.40
2022-11-20T00:48:55.254Z,-2.41
2022-11-20T00:51:27.514Z,-2.44
2022-11-20T00:53:58.373Z,-2.35
2022-11-20T00:56:31.291Z,-2.28
2022-11-20T00:59:02.601Z,-2.29
2022-11-20T01:01:33.401Z,-2.46
2022-11-20T01:04:02.923Z,-2.61
2022-11-20T01:06:33.968Z,-2.51
2022-11-20T01:09:07.100Z,-2.36
2022-11-20T01:11:39.624Z,-2.38
2022-11-20T01:14:12.053Z,-2.41
2022-11-20T01:16:42.907Z,-2.51
2022-11-20T01:19:17.669Z,-2.56
2022-11-20T01:21:49.934Z,-2.62
2022-11-20T01:24:26.863Z,-2.63
2022-11-20T01:26:57.925Z,-2.57
2022-11-20T01:29:27.740Z,-2.95
2022-11-20T01:31:57.404Z,-2.66
2022-11-20T01:34:27.140Z,-2.67
2022-11-20T01:36:59.512Z,-2.71
2022-11-20T01:39:29.612Z,-2.80
2022-11-20T01:42:18.556Z,-2.78
2022-11-20T01:44:54.710Z,-3.75
2022-11-20T01:47:30.773Z,-2.76
2022-11-20T01:50:05.631Z,-2.70
2022-11-20T01:52:38.982Z,-2.70
2022-11-20T01:55:12.285Z,-2.75
2022-11-20T01:57:46.752Z,-2.80
2022-11-20T02:00:17.857Z,-2.86
2022-11-20T02:02:52.578Z,-2.89
2022-11-20T02:05:27.876Z,-3.02
2022-11-20T02:08:01.166Z,-2.99
2022-11-20T02:10:31.352Z,-3.17
2022-11-20T02:13:19.519Z,-2.88
2022-11-20T02:15:48.991Z,-2.84
2022-11-20T02:18:23.002Z,-2.85
2022-11-20T02:20:58.947Z,-2.79
2022-11-20T02:23:34.913Z,-4.23
2022-11-20T02:26:13.476Z,-2.85
2022-11-20T02:28:42.165Z,-3.00
2022-11-20T02:31:11.622Z,-2.90
2022-11-20T02:33:42.430Z,-2.56
2022-11-20T02:36:16.564Z,-2.68
2022-11-20T02:38:48.349Z,-2.89
2022-11-20T02:41:18.958Z,-2.95
2022-11-20T02:43:47.666Z,-2.39
2022-11-20T02:46:18.708Z,-2.53
2022-11-20T02:48:47.808Z,-2.71
2022-11-20T02:51:17.651Z,-2.70
2022-11-20T02:53:46.311Z,-2.62
2022-11-20T02:56:15.860Z,-2.12
2022-11-20T02:58:48.754Z,-2.36
2022-11-20T03:01:20.451Z,-2.47
2022-11-20T03:03:50.391Z,-2.32
2022-11-20T03:06:21.698Z,-2.26
2022-11-20T03:08:50.427Z,-2.41
2022-11-20T03:11:20.362Z,-2.52
2022-11-20T03:13:50.678Z,-2.69
2022-11-20T03:16:25.100Z,-2.63
2022-11-20T03:18:54.965Z,-2.78
2022-11-20T03:21:26.214Z,-2.47
2022-11-20T03:23:55.509Z,-2.29
2022-11-20T03:26:28.204Z,-2.52
2022-11-20T03:29:00.002Z,-2.68
2022-11-20T03:31:30.733Z,-2.72
2022-11-20T03:34:06.904Z,-2.86
2022-11-20T03:36:35.821Z,-2.69
2022-11-20T03:39:05.650Z,-2.57
2022-11-20T03:41:39.089Z,-2.69
2022-11-20T03:44:12.694Z,-2.93
2022-11-20T03:46:41.420Z,-2.85
2022-11-20T03:49:10.684Z,-2.88
2022-11-20T03:51:42.099Z,-2.95
2022-11-20T03:54:11.606Z,-3.79
2022-11-20T03:56:40.833Z,-2.95
2022-11-20T03:59:13.429Z,-2.63
2022-11-20T04:01:44.333Z,-2.55
2022-11-20T04:04:15.773Z,-2.69
2022-11-20T04:06:44.999Z,-2.94
2022-11-20T04:09:17.683Z,-2.83
2022-11-20T04:11:46.470Z,-2.89
2022-11-20T04:14:18.064Z,-3.01
2022-11-20T04:16:47.054Z,-3.85
2022-11-20T04:19:18.319Z,-2.87
2022-11-20T04:21:47.266Z,-2.74
2022-11-20T04:24:16.655Z,-2.66
2022-11-20T04:26:45.770Z,-2.93
2022-11-20T04:29:16.971Z,-2.96
2022-11-20T04:31:45.584Z,-3.22
2022-11-20T04:34:14.835Z,-2.91
2022-11-20T04:36:43.512Z,-2.75
2022-11-20T04:39:43.814Z,-2.45
2022-11-20T04:42:31.693Z,-2.81
2022-11-20T04:45:02.628Z,-2.54
2022-11-20T04:47:32.144Z,-2.69
2022-11-20T04:50:01.769Z,-2.54
2022-11-20T04:52:31.132Z,-2.72
2022-11-20T04:55:00.700Z,-2.93
2022-11-20T04:57:29.847Z,-2.54
2022-11-20T04:59:59.043Z,-2.48
2022-11-20T05:02:29.955Z,-2.64
2022-11-20T05:04:59.454Z,-2.50
2022-11-20T05:07:28.739Z,-2.75
2022-11-20T05:09:57.976Z,-2.50
2022-11-20T05:12:27.473Z,-2.54
2022-11-20T05:14:56.950Z,-2.47
2022-11-20T05:17:26.214Z,-2.41
2022-11-20T05:19:56.838Z,-2.65
2022-11-20T05:22:28.732Z,-2.88
2022-11-20T05:24:58.206Z,-2.94
2022-11-20T05:27:27.683Z,-3.94
2022-11-20T05:30:00.673Z,-2.94
2022-11-20T05:32:29.792Z,-3.06
2022-11-20T05:35:00.741Z,-3.15
2022-11-20T05:37:29.915Z,-3.10
2022-11-20T05:39:59.805Z,-3.08
2022-11-20T05:42:34.868Z,-3.01
2022-11-20T05:45:07.116Z,-3.13
2022-11-20T05:47:37.251Z,-3.04
2022-11-20T05:50:09.099Z,-2.95
2022-11-20T05:52:38.251Z,-2.87
2022-11-20T05:55:08.447Z,-2.93
2022-11-20T05:57:37.939Z,-2.81
2022-11-20T06:00:08.689Z,-2.54
2022-11-20T06:02:38.370Z,-2.44
2022-11-20T06:05:10.120Z,-2.31
2022-11-20T06:07:39.557Z,-2.62
2022-11-20T06:10:10.683Z,-2.55
2022-11-20T06:12:40.291Z,-2.45
2022-11-20T06:15:11.527Z,-2.29
2022-11-20T06:17:41.538Z,-2.20
2022-11-20T06:20:13.428Z,-2.16
2022-11-20T06:22:43.511Z,-2.37
2022-11-20T06:25:13.972Z,-2.59
2022-11-20T06:27:43.993Z,-2.64
2022-11-20T06:30:15.537Z,-2.62
2022-11-20T06:32:46.190Z,-2.59
2022-11-20T06:35:17.928Z,-2.17
2022-11-20T06:37:49.689Z,-2.22
2022-11-20T06:40:19.510Z,-2.46
2022-11-20T06:42:48.989Z,-2.44
2022-11-20T06:45:18.570Z,-2.54
2022-11-20T06:47:48.290Z,-2.51
2022-11-20T06:50:19.357Z,-3.81
2022-11-20T06:52:52.429Z,-2.52
2022-11-20T06:55:21.667Z,-2.55
2022-11-20T06:57:53.379Z,-2.75
2022-11-20T07:00:25.381Z,-3.00
2022-11-20T07:02:55.094Z,-2.86
2022-11-20T07:05:25.599Z,-3.20
2022-11-20T07:07:58.462Z,-2.79
2022-11-20T07:10:28.180Z,-2.90
2022-11-20T07:12:57.727Z,-3.07
2022-11-20T07:15:29.347Z,-2.90
2022-11-20T07:18:01.325Z,-2.90
2022-11-20T07:20:33.769Z,-2.86
2022-11-20T07:23:03.087Z,-3.45
2022-11-20T07:25:32.451Z,-3.08
2022-11-20T07:28:03.132Z,-3.02
2022-11-20T07:30:32.773Z,-2.93
2022-11-20T07:33:02.491Z,-2.96
2022-11-20T07:35:36.941Z,-3.57
2022-11-20T07:38:07.397Z,-2.88
2022-11-20T07:40:36.833Z,-3.11
2022-11-20T07:43:06.578Z,-2.69
2022-11-20T07:45:38.381Z,-3.01
2022-11-20T07:48:08.188Z,-2.84
2022-11-20T07:50:44.262Z,-2.76
2022-11-20T07:53:13.765Z,-2.60
2022-11-20T07:55:46.126Z,-2.56
2022-11-20T07:58:16.203Z,-2.67
2022-11-20T08:00:45.301Z,-2.68
2022-11-20T08:03:15.324Z,-4.01
2022-11-20T08:05:49.573Z,-2.79
2022-11-20T08:08:19.292Z,-2.76
2022-11-20T08:10:49.868Z,-2.47
2022-11-20T08:13:37.653Z,-2.54
2022-11-20T08:16:07.261Z,-2.61
2022-11-20T08:18:36.239Z,-2.58
2022-11-20T08:21:07.984Z,-2.25
2022-11-20T08:23:37.271Z,-2.44
2022-11-20T08:26:07.008Z,-2.30
2022-11-20T08:28:36.403Z,-2.10
2022-11-20T08:31:06.090Z,-2.16
2022-11-20T08:33:35.754Z,-2.12
2022-11-20T08:36:07.984Z,-2.37
2022-11-20T08:38:37.625Z,-1.87
2022-11-20T08:41:26.710Z,-2.05
2022-11-20T08:43:59.265Z,-2.38
2022-11-20T08:46:34.302Z,-1.86
2022-11-20T08:49:07.361Z,-2.05
2022-11-20T08:51:41.333Z,-2.46
2022-11-20T08:54:13.562Z,-2.06
2022-11-20T08:56:42.772Z,-2.07
2022-11-20T08:59:50.936Z,-2.08
2022-11-20T09:02:02.405Z,-2.13
2022-11-20T09:04:33.921Z,-1.96
2022-11-20T09:07:05.276Z,-1.76
2022-11-20T09:09:34.926Z,-1.85
2022-11-20T09:12:05.244Z,-1.83
2022-11-20T09:14:35.424Z,-2.74
2022-11-20T09:17:06.128Z,-1.67
2022-11-20T09:19:40.720Z,-1.53
2022-11-20T09:22:12.167Z,-1.71
2022-11-20T09:24:41.587Z,-1.55
2022-11-20T09:27:12.259Z,-1.96
2022-11-20T09:29:45.977Z,-1.67
2022-11-20T09:32:15.360Z,-1.48
2022-11-20T09:34:44.736Z,-1.57
2022-11-20T09:37:15.992Z,-1.49
2022-11-20T09:39:45.890Z,-1.40
2022-11-20T09:42:30.200Z,-1.45
2022-11-20T09:45:20.944Z,-1.46
2022-11-20T09:48:02.540Z,-1.74
2022-11-20T09:50:38.021Z,-1.35
2022-11-20T09:53:15.752Z,-1.26
2022-11-20T09:55:45.262Z,-1.02
2022-11-20T09:58:25.169Z,-1.17
2022-11-20T10:00:59.682Z,-1.21
2022-11-20T10:03:40.006Z,-1.15
2022-11-20T10:06:14.799Z,-0.82
2022-11-20T10:08:50.729Z,-0.92
2022-11-20T10:11:31.423Z,-0.77
2022-11-20T10:14:13.052Z,-0.91
2022-11-20T10:16:49.688Z,-0.85
2022-11-20T10:19:35.154Z,-1.00
2022-11-20T10:22:16.475Z,-0.50
2022-11-20T10:24:55.207Z,-1.89
2022-11-20T10:27:44.041Z,-0.52
2022-11-20T10:30:15.468Z,-0.46
2022-11-20T10:32:46.768Z,-0.58
2022-11-20T10:35:23.346Z,-0.80
2022-11-20T10:37:58.682Z,-0.43
2022-11-20T10:40:37.541Z,-0.39
2022-11-20T10:43:14.827Z,-0.46
2022-11-20T10:45:51.505Z,-0.36
2022-11-20T10:48:23.853Z,-0.31
2022-11-20T10:51:01.843Z,-0.45
2022-11-20T10:53:57.872Z,-0.41
2022-11-20T10:56:37.694Z,-0.16
2022-11-20T10:59:34.723Z,-0.08
2022-11-20T11:02:17.379Z,-0.01
2022-11-20T11:04:48.408Z,-0.14
2022-11-20T11:07:22.331Z,-0.06
2022-11-20T11:09:54.229Z,-0.15
2022-11-20T11:12:27.515Z,-0.05
2022-11-20T11:15:00.060Z,0.36
2022-11-20T11:17:31.259Z,0.23
2022-11-20T11:20:17.615Z,-2.07
2022-11-20T11:22:49.633Z,-0.76
2022-11-20T11:25:31.077Z,0.40
2022-11-20T11:28:03.333Z,-0.83
2022-11-20T11:30:44.388Z,0.47
2022-11-20T11:33:21.265Z,0.30
2022-11-20T11:35:53.511Z,0.48
2022-11-20T11:38:29.638Z,0.90
2022-11-20T11:40:59.874Z,0.54
2022-11-20T11:43:50.702Z,0.79
2022-11-20T11:46:31.309Z,0.88
2022-11-20T11:49:02.058Z,0.73
2022-11-20T11:51:38.589Z,0.72
2022-11-20T11:54:16.849Z,0.94
2022-11-20T11:56:46.573Z,0.84
2022-11-20T11:59:25.751Z,0.66
2022-11-20T12:01:59.331Z,0.73
2022-11-20T12:04:45.752Z,0.78
2022-11-20T12:07:46.203Z,0.77
2022-11-20T12:10:21.950Z,0.84
2022-11-20T12:12:58.585Z,0.84
2022-11-20T12:15:36.101Z,0.72
2022-11-20T12:18:22.323Z,0.83
2022-11-20T12:21:02.531Z,0.99
2022-11-20T12:23:39.783Z,1.00
2022-11-20T12:26:22.120Z,1.08
2022-11-20T12:29:04.330Z,1.12
2022-11-20T12:32:04.851Z,1.03
2022-11-20T12:34:53.238Z,1.14
2022-11-20T12:37:35.743Z,1.33
2022-11-20T12:40:19.879Z,1.45
2022-11-20T12:43:16.828Z,1.32
2022-11-20T12:46:05.971Z,0.97
2022-11-20T12:48:49.287Z,1.40
2022-11-20T12:51:29.147Z,1.39
2022-11-20T12:54:13.580Z,1.57
2022-11-20T12:56:51.244Z,1.46
2022-11-20T12:59:34.445Z,1.35
2022-11-20T13:02:16.689Z,1.49
2022-11-20T13:05:01.745Z,1.21
2022-11-20T13:07:32.672Z,1.61
2022-11-20T13:10:02.292Z,0.46
2022-11-20T13:12:36.699Z,1.48
2022-11-20T13:15:16.140Z,1.39
2022-11-20T13:17:51.198Z,1.26
2022-11-20T13:20:50.786Z,1.78
2022-11-20T13:23:27.898Z,1.72
2022-11-20T13:26:19.171Z,1.51
2022-11-20T13:28:49.641Z,1.79
2022-11-20T13:31:33.052Z,1.67
2022-11-20T13:34:05.215Z,1.56
2022-11-20T13:36:37.615Z,1.66
2022-11-20T13:39:07.368Z,1.82
2022-11-20T13:41:39.215Z,1.65
2022-11-20T13:44:15.624Z,0.24
2022-11-20T13:46:46.898Z,1.43
2022-11-20T13:49:25.055Z,1.32
2022-11-20T13:52:06.859Z,1.67
2022-11-20T13:55:01.099Z,1.58
2022-11-20T13:57:41.095Z,1.41
2022-11-20T14:00:14.642Z,1.67
2022-11-20T14:02:45.132Z,1.69
2022-11-20T14:05:22.688Z,1.93
2022-11-20T14:07:55.143Z,1.83
2022-11-20T14:10:31.729Z,1.84
2022-11-20T14:13:13.101Z,1.80
2022-11-20T14:15:45.194Z,1.80
2022-11-20T14:18:23.684Z,1.85
2022-11-20T14:20:52.933Z,1.96
2022-11-20T14:23:31.211Z,1.64
2022-11-20T14:26:00.723Z,1.12
2022-11-20T14:28:33.600Z,1.70
2022-11-20T14:31:03.329Z,1.93
2022-11-20T14:33:35.889Z,0.73
2022-11-20T14:36:05.515Z,-0.27
2022-11-20T14:38:36.269Z,2.11
2022-11-20T14:41:09.421Z,1.96
2022-11-20T14:43:38.881Z,1.93
2022-11-20T14:46:10.913Z,1.80
2022-11-20T14:48:43.324Z,1.88
2022-11-20T14:51:13.632Z,1.53
2022-11-20T14:53:44.071Z,1.89
2022-11-20T14:56:13.250Z,2.02
2022-11-20T14:58:42.408Z,2.03
2022-11-20T15:01:15.557Z,1.92
2022-11-20T15:03:44.885Z,1.63
2022-11-20T15:06:15.059Z,1.87
2022-11-20T15:08:54.951Z,1.89
2022-11-20T15:11:32.603Z,1.98
2022-11-20T15:14:06.370Z,2.06
2022-11-20T15:16:35.914Z,1.90
2022-11-20T15:19:19.514Z,1.71
2022-11-20T15:21:48.740Z,1.99
2022-11-20T15:24:19.649Z,1.82
2022-11-20T15:26:48.811Z,1.80
2022-11-20T15:29:20.480Z,2.03
2022-11-20T15:31:52.389Z,1.99
2022-11-20T15:34:22.294Z,1.89
2022-11-20T15:36:51.746Z,1.91
2022-11-20T15:39:22.752Z,1.88
2022-11-20T15:41:52.287Z,1.70
2022-11-20T15:44:22.112Z,1.67
2022-11-20T15:46:52.065Z,1.70
2022-11-20T15:49:23.805Z,1.73
2022-11-20T15:51:57.723Z,1.57
2022-11-20T15:54:28.799Z,1.56
2022-11-20T15:56:58.139Z,1.35
2022-11-20T15:59:27.575Z,1.65
2022-11-20T16:01:57.234Z,1.65
2022-11-20T16:04:26.720Z,1.69
2022-11-20T16:06:56.252Z,1.80
2022-11-20T16:09:28.294Z,1.78
2022-11-20T16:12:44.836Z,1.86
2022-11-20T16:15:33.940Z,1.76
2022-11-20T16:18:04.728Z,1.77
2022-11-20T16:20:34.541Z,1.63
2022-11-20T16:23:07.091Z,1.75
2022-11-20T16:25:36.602Z,1.71
2022-11-20T16:28:08.662Z,1.74
2022-11-20T16:30:38.159Z,1.77
2022-11-20T16:33:12.345Z,1.74
2022-11-20T16:35:42.056Z,1.67
2022-11-20T16:38:14.054Z,1.74
2022-11-20T16:40:43.636Z,1.80
2022-11-20T16:43:16.239Z,1.81
2022-11-20T16:45:47.171Z,1.73
2022-11-20T16:48:18.474Z,1.90
2022-11-20T16:50:50.442Z,1.54
2022-11-20T16:53:20.903Z,1.71
2022-11-20T16:56:19.404Z,1.85
2022-11-20T16:58:53.337Z,1.85
2022-11-20T17:01:24.731Z,1.92
2022-11-20T17:03:58.049Z,1.94
2022-11-20T17:06:29.566Z,1.78
2022-11-20T17:09:00.132Z,1.66
2022-11-20T17:11:29.956Z,1.66
2022-11-20T17:14:02.464Z,1.69
2022-11-20T17:16:35.371Z,1.83
2022-11-20T17:19:05.744Z,1.89
2022-11-20T17:21:37.310Z,2.14
2022-11-20T17:24:09.455Z,2.05
2022-11-20T17:26:40.668Z,2.00
2022-11-20T17:29:14.082Z,2.18
2022-11-20T17:31:43.342Z,2.14
2022-11-20T17:34:14.574Z,2.21
2022-11-20T17:36:46.583Z,2.00
2022-11-20T17:39:19.527Z,2.09
2022-11-20T17:42:08.601Z,2.07
2022-11-20T17:45:08.016Z,2.05
2022-11-20T17:47:37.591Z,2.19
2022-11-20T17:50:07.378Z,1.92
2022-11-20T17:52:36.990Z,2.20
2022-11-20T17:55:11.075Z,2.26
2022-11-20T17:57:56.854Z,2.24
2022-11-20T18:00:28.618Z,2.26
2022-11-20T18:02:59.215Z,2.14
2022-11-20T18:05:28.608Z,2.23
2022-11-20T18:07:57.995Z,2.25
2022-11-20T18:10:30.975Z,2.19
2022-11-20T18:13:00.574Z,2.10
2022-11-20T18:15:31.617Z,1.48
2022-11-20T18:18:03.017Z,2.20
2022-11-20T18:20:39.660Z,2.22
2022-11-20T18:23:09.444Z,2.19
2022-11-20T18:25:39.880Z,2.28
2022-11-20T18:28:09.802Z,2.21
2022-11-20T18:30:39.967Z,2.26
2022-11-20T18:33:08.669Z,2.52
2022-11-20T18:35:37.376Z,2.63
2022-11-20T18:38:08.525Z,2.91
2022-11-20T18:40:37.656Z,1.40
2022-11-20T18:43:29.607Z,2.70
2022-11-20T18:46:05.067Z,2.42
2022-11-20T18:48:33.892Z,2.47
2022-11-20T18:51:06.765Z,2.39
2022-11-20T18:53:36.246Z,2.45
2022-11-20T18:56:05.592Z,2.84
2022-11-20T18:58:34.432Z,2.50
2022-11-20T19:01:08.388Z,2.29
2022-11-20T19:03:37.463Z,2.47
2022-11-20T19:06:06.949Z,2.54
2022-11-20T19:08:36.809Z,1.79
2022-11-20T19:11:09.999Z,2.53
2022-11-20T19:13:39.967Z,2.40
2022-11-20T19:16:14.428Z,2.32
2022-11-20T19:18:45.493Z,2.56
2022-11-20T19:21:16.055Z,2.64
2022-11-20T19:23:48.453Z,2.63
2022-11-20T19:26:18.198Z,2.76
2022-11-20T19:28:49.751Z,2.47
2022-11-20T19:31:24.624Z,2.46
2022-11-20T19:33:57.188Z,2.18
2022-11-20T19:36:27.802Z,2.27
2022-11-20T19:38:57.174Z,2.25
2022-11-20T19:41:31.661Z,2.30
2022-11-20T19:44:02.393Z,2.34
2022-11-20T19:46:33.867Z,2.16
2022-11-20T19:49:04.832Z,2.32
2022-11-20T19:51:36.464Z,2.48
2022-11-20T19:54:06.373Z,2.33
2022-11-20T19:56:35.851Z,2.32
2022-11-20T19:59:04.847Z,2.42
2022-11-20T20:01:39.321Z,2.47
2022-11-20T20:04:09.067Z,2.52
2022-11-20T20:06:40.034Z,2.57
2022-11-20T20:09:13.218Z,2.50
2022-11-20T20:11:46.802Z,2.48
2022-11-20T20:14:18.396Z,2.62
2022-11-20T20:16:49.297Z,2.70
2022-11-20T20:19:20.030Z,2.53
2022-11-20T20:21:51.036Z,2.40
2022-11-20T20:24:21.112Z,2.33
2022-11-20T20:26:51.577Z,2.58
2022-11-20T20:29:24.481Z,2.40
2022-11-20T20:31:55.688Z,2.85
2022-11-20T20:34:29.633Z,2.75
2022-11-20T20:36:58.909Z,2.78
2022-11-20T20:39:29.283Z,2.68
2022-11-20T20:41:58.873Z,2.55
2022-11-20T20:44:45.126Z,2.38
2022-11-20T20:47:15.173Z,2.30
2022-11-20T20:49:44.836Z,2.33
2022-11-20T20:52:14.980Z,2.32
2022-11-20T20:54:44.825Z,2.28
2022-11-20T20:57:13.971Z,2.32
2022-11-20T20:59:42.614Z,2.25
2022-11-20T21:02:12.452Z,2.27
2022-11-20T21:04:43.333Z,2.26
2022-11-20T21:07:13.147Z,2.32
2022-11-20T21:09:45.027Z,2.33
2022-11-20T21:12:13.875Z,2.33
2022-11-20T21:14:42.778Z,2.32
2022-11-20T21:17:15.366Z,2.33
2022-11-20T21:19:45.865Z,2.45
2022-11-20T21:22:13.613Z,2.64
2022-11-20T21:24:43.385Z,2.38
2022-11-20T21:27:13.951Z,2.33
2022-11-20T21:29:42.818Z,2.15
2022-11-20T21:32:40.775Z,2.34
2022-11-20T21:35:11.827Z,1.11
2022-11-20T21:37:41.999Z,2.44
2022-11-20T21:40:11.705Z,2.37
2022-11-20T21:42:41.473Z,2.31
2022-11-20T21:45:11.185Z,2.33
2022-11-20T21:47:41.162Z,2.45
2022-11-20T21:50:12.404Z,2.27
2022-11-20T21:52:43.856Z,2.25
2022-11-20T21:55:12.961Z,2.27
2022-11-20T21:57:42.233Z,2.32
2022-11-20T22:00:14.151Z,2.13
2022-11-20T22:02:43.705Z,2.31
2022-11-20T22:05:14.299Z,2.28
2022-11-20T22:07:45.928Z,2.26
2022-11-20T22:10:18.426Z,2.29
2022-11-20T22:12:48.211Z,2.57
2022-11-20T22:15:33.021Z,1.33
2022-11-20T22:18:15.767Z,2.43
2022-11-20T22:20:47.222Z,2.80
2022-11-20T22:23:16.661Z,2.38
2022-11-20T22:25:46.367Z,2.84
2022-11-20T22:28:16.409Z,2.39
2022-11-20T22:30:47.124Z,2.45
2022-11-20T22:33:17.555Z,1.85
2022-11-20T22:35:48.833Z,2.30
2022-11-20T22:38:18.852Z,2.29
2022-11-20T22:40:48.857Z,2.29
2022-11-20T22:43:18.316Z,2.29
2022-11-20T22:45:47.888Z,2.28
2022-11-20T22:48:16.902Z,2.23
2022-11-20T22:50:48.020Z,2.20
2022-11-20T22:53:17.635Z,2.09
2022-11-20T22:55:50.730Z,2.20
2022-11-20T22:58:21.052Z,2.27
2022-11-20T23:00:50.374Z,1.30
2022-11-20T23:03:20.538Z,2.28
2022-11-20T23:05:51.235Z,2.44
2022-11-20T23:08:20.946Z,2.45
2022-11-20T23:10:52.911Z,2.38
2022-11-20T23:13:23.091Z,2.41
2022-11-20T23:15:53.070Z,2.40
2022-11-20T23:18:24.624Z,2.33
2022-11-20T23:20:55.361Z,2.39
2022-11-20T23:23:24.176Z,2.17
2022-11-20T23:25:55.923Z,2.42
2022-11-20T23:28:24.916Z,2.47
2022-11-20T23:30:56.085Z,2.47
2022-11-20T23:33:25.386Z,2.47
2022-11-20T23:35:58.385Z,2.82
2022-11-20T23:38:27.973Z,2.59
2022-11-20T23:40:57.160Z,2.73
2022-11-20T23:43:26.465Z,2.45
2022-11-20T23:45:57.898Z,2.45
2022-11-20T23:48:28.757Z,2.44
2022-11-20T23:50:59.446Z,2.43
2022-11-20T23:53:29.614Z,2.30
2022-11-20T23:56:00.796Z,2.41
2022-11-20T23:58:33.491Z,2.59
